sensor_id;sensor_type;location;lat;lon;timestamp;P1;durP1;ratioP1;P2;durP2;ratioP2
9420;SDS011;4749;51.398;5.466;2023-04-01T00:01:09;5.57;;;1.20;;
9420;SDS011;4749;51.398;5.466;2023-04-01T00:03:40;3.27;;;1.10;;
9420;SDS011;4749;51.398;5.466;2023-04-01T00:06:08;4.80;;;0.90;;
9420;SDS011;4749;51.398;5.466;2023-04-01T00:08:39;3.15;;;1.05;;
9420;SDS011;4749;51.398;5.466;2023-04-01T00:11:07;2.93;;;0.97;;
9420;SDS011;4749;51.398;5.466;2023-04-01T00:13:34;2.67;;;0.93;;
9420;SDS011;4749;51.398;5.466;2023-04-01T00:16:02;5.33;;;1.20;;
9420;SDS011;4749;51.398;5.466;2023-04-01T00:18:45;2.50;;;1.00;;
9420;SDS011;4749;51.398;5.466;2023-04-01T00:21:17;3.60;;;0.93;;
9420;SDS011;4749;51.398;5.466;2023-04-01T00:23:46;2.83;;;1.13;;
9420;SDS011;4749;51.398;5.466;2023-04-01T00:26:15;4.37;;;0.90;;
9420;SDS011;4749;51.398;5.466;2023-04-01T00:28:45;4.10;;;0.90;;
9420;SDS011;4749;51.398;5.466;2023-04-01T00:31:13;4.10;;;1.10;;
9420;SDS011;4749;51.398;5.466;2023-04-01T00:33:40;4.78;;;1.00;;
9420;SDS011;4749;51.398;5.466;2023-04-01T00:36:08;3.05;;;1.02;;
9420;SDS011;4749;51.398;5.466;2023-04-01T00:38:38;3.00;;;1.00;;
9420;SDS011;4749;51.398;5.466;2023-04-01T00:41:07;2.70;;;1.00;;
9420;SDS011;4749;51.398;5.466;2023-04-01T00:43:36;4.87;;;0.80;;
9420;SDS011;4749;51.398;5.466;2023-04-01T00:46:03;4.53;;;1.20;;
9420;SDS011;4749;51.398;5.466;2023-04-01T00:48:32;3.83;;;1.10;;
9420;SDS011;4749;51.398;5.466;2023-04-01T00:53:55;2.70;;;0.90;;
9420;SDS011;4749;51.398;5.466;2023-04-01T00:56:30;1.73;;;0.93;;
9420;SDS011;4749;51.398;5.466;2023-04-01T00:59:14;2.57;;;0.80;;
9420;SDS011;4749;51.398;5.466;2023-04-01T01:01:47;3.10;;;1.07;;
9420;SDS011;4749;51.398;5.466;2023-04-01T01:15:02;3.17;;;1.00;;
9420;SDS011;4749;51.398;5.466;2023-04-01T01:24:07;2.83;;;1.07;;
9420;SDS011;4749;51.398;5.466;2023-04-01T01:33:09;2.47;;;0.80;;
9420;SDS011;4749;51.398;5.466;2023-04-01T01:35:46;2.20;;;0.80;;
9420;SDS011;4749;51.398;5.466;2023-04-01T01:38:30;1.90;;;0.77;;
9420;SDS011;4749;51.398;5.466;2023-04-01T01:41:00;2.23;;;1.00;;
9420;SDS011;4749;51.398;5.466;2023-04-01T01:43:31;2.03;;;1.13;;
9420;SDS011;4749;51.398;5.466;2023-04-01T01:46:09;1.23;;;0.67;;
9420;SDS011;4749;51.398;5.466;2023-04-01T01:48:41;0.83;;;0.80;;
9420;SDS011;4749;51.398;5.466;2023-04-01T01:51:09;2.27;;;1.00;;
9420;SDS011;4749;51.398;5.466;2023-04-01T01:53:37;1.07;;;0.80;;
9420;SDS011;4749;51.398;5.466;2023-04-01T01:56:04;2.47;;;0.90;;
9420;SDS011;4749;51.398;5.466;2023-04-01T01:58:33;3.30;;;1.20;;
9420;SDS011;4749;51.398;5.466;2023-04-01T02:01:13;1.83;;;0.77;;
9420;SDS011;4749;51.398;5.466;2023-04-01T02:03:45;1.00;;;0.90;;
9420;SDS011;4749;51.398;5.466;2023-04-01T02:06:15;1.83;;;1.10;;
9420;SDS011;4749;51.398;5.466;2023-04-01T02:08:55;1.63;;;1.40;;
9420;SDS011;4749;51.398;5.466;2023-04-01T02:11:29;3.03;;;1.20;;
9420;SDS011;4749;51.398;5.466;2023-04-01T02:14:11;2.23;;;1.57;;
9420;SDS011;4749;51.398;5.466;2023-04-01T02:17:02;2.70;;;1.50;;
9420;SDS011;4749;51.398;5.466;2023-04-01T02:19:39;1.90;;;1.50;;
9420;SDS011;4749;51.398;5.466;2023-04-01T02:22:19;2.70;;;1.80;;
9420;SDS011;4749;51.398;5.466;2023-04-01T02:24:52;2.93;;;2.10;;
9420;SDS011;4749;51.398;5.466;2023-04-01T02:27:24;2.23;;;1.83;;
9420;SDS011;4749;51.398;5.466;2023-04-01T02:29:52;3.30;;;2.33;;
9420;SDS011;4749;51.398;5.466;2023-04-01T02:32:19;1.67;;;1.40;;
9420;SDS011;4749;51.398;5.466;2023-04-01T02:34:47;3.80;;;1.63;;
9420;SDS011;4749;51.398;5.466;2023-04-01T02:37:15;2.10;;;1.90;;
9420;SDS011;4749;51.398;5.466;2023-04-01T02:39:43;2.07;;;1.60;;
9420;SDS011;4749;51.398;5.466;2023-04-01T02:42:11;2.77;;;2.10;;
9420;SDS011;4749;51.398;5.466;2023-04-01T02:44:39;2.20;;;1.90;;
9420;SDS011;4749;51.398;5.466;2023-04-01T02:47:06;2.50;;;2.07;;
9420;SDS011;4749;51.398;5.466;2023-04-01T02:49:34;3.20;;;2.40;;
9420;SDS011;4749;51.398;5.466;2023-04-01T02:52:01;3.20;;;2.87;;
9420;SDS011;4749;51.398;5.466;2023-04-01T02:54:28;3.77;;;3.37;;
9420;SDS011;4749;51.398;5.466;2023-04-01T02:56:55;4.25;;;3.60;;
9420;SDS011;4749;51.398;5.466;2023-04-01T02:59:22;4.73;;;3.67;;
9420;SDS011;4749;51.398;5.466;2023-04-01T03:01:49;5.37;;;4.30;;
9420;SDS011;4749;51.398;5.466;2023-04-01T03:04:17;8.70;;;4.70;;
9420;SDS011;4749;51.398;5.466;2023-04-01T03:06:44;8.70;;;5.67;;
9420;SDS011;4749;51.398;5.466;2023-04-01T03:09:11;7.90;;;4.40;;
9420;SDS011;4749;51.398;5.466;2023-04-01T03:11:38;8.53;;;4.70;;
9420;SDS011;4749;51.398;5.466;2023-04-01T03:14:06;6.60;;;4.87;;
9420;SDS011;4749;51.398;5.466;2023-04-01T03:16:34;10.07;;;4.87;;
9420;SDS011;4749;51.398;5.466;2023-04-01T03:19:01;6.47;;;4.63;;
9420;SDS011;4749;51.398;5.466;2023-04-01T03:21:28;5.63;;;4.43;;
9420;SDS011;4749;51.398;5.466;2023-04-01T03:23:55;7.83;;;4.73;;
9420;SDS011;4749;51.398;5.466;2023-04-01T03:26:23;7.13;;;5.17;;
9420;SDS011;4749;51.398;5.466;2023-04-01T03:28:56;5.60;;;4.83;;
9420;SDS011;4749;51.398;5.466;2023-04-01T03:31:23;7.80;;;4.77;;
9420;SDS011;4749;51.398;5.466;2023-04-01T03:33:51;4.90;;;4.27;;
9420;SDS011;4749;51.398;5.466;2023-04-01T03:36:18;5.17;;;4.57;;
9420;SDS011;4749;51.398;5.466;2023-04-01T03:38:45;4.27;;;3.87;;
9420;SDS011;4749;51.398;5.466;2023-04-01T03:41:16;5.90;;;4.10;;
9420;SDS011;4749;51.398;5.466;2023-04-01T03:43:44;4.30;;;3.90;;
9420;SDS011;4749;51.398;5.466;2023-04-01T03:46:16;4.27;;;3.73;;
9420;SDS011;4749;51.398;5.466;2023-04-01T03:48:44;3.73;;;3.13;;
9420;SDS011;4749;51.398;5.466;2023-04-01T03:51:12;3.73;;;3.43;;
9420;SDS011;4749;51.398;5.466;2023-04-01T03:53:39;4.63;;;3.10;;
9420;SDS011;4749;51.398;5.466;2023-04-01T03:56:07;4.30;;;3.57;;
9420;SDS011;4749;51.398;5.466;2023-04-01T03:58:35;5.10;;;3.23;;
9420;SDS011;4749;51.398;5.466;2023-04-01T04:01:17;5.43;;;3.67;;
9420;SDS011;4749;51.398;5.466;2023-04-01T04:03:48;4.93;;;4.03;;
9420;SDS011;4749;51.398;5.466;2023-04-01T04:06:17;4.43;;;3.70;;
9420;SDS011;4749;51.398;5.466;2023-04-01T04:08:45;4.40;;;4.00;;
9420;SDS011;4749;51.398;5.466;2023-04-01T04:11:13;4.60;;;4.20;;
9420;SDS011;4749;51.398;5.466;2023-04-01T04:13:41;5.43;;;4.43;;
9420;SDS011;4749;51.398;5.466;2023-04-01T04:16:09;5.53;;;5.03;;
9420;SDS011;4749;51.398;5.466;2023-04-01T04:18:37;6.67;;;5.30;;
9420;SDS011;4749;51.398;5.466;2023-04-01T04:21:04;6.03;;;4.83;;
9420;SDS011;4749;51.398;5.466;2023-04-01T04:23:32;7.50;;;5.73;;
9420;SDS011;4749;51.398;5.466;2023-04-01T04:26:00;7.50;;;5.90;;
9420;SDS011;4749;51.398;5.466;2023-04-01T04:28:31;8.17;;;6.13;;
9420;SDS011;4749;51.398;5.466;2023-04-01T04:30:59;6.93;;;5.73;;
9420;SDS011;4749;51.398;5.466;2023-04-01T04:33:27;6.60;;;5.77;;
9420;SDS011;4749;51.398;5.466;2023-04-01T04:35:55;8.93;;;5.63;;
9420;SDS011;4749;51.398;5.466;2023-04-01T04:38:24;9.67;;;6.03;;
9420;SDS011;4749;51.398;5.466;2023-04-01T04:40:52;7.90;;;6.20;;
9420;SDS011;4749;51.398;5.466;2023-04-01T04:43:20;7.80;;;6.30;;
9420;SDS011;4749;51.398;5.466;2023-04-01T04:45:47;9.23;;;6.60;;
9420;SDS011;4749;51.398;5.466;2023-04-01T04:48:15;7.27;;;5.93;;
9420;SDS011;4749;51.398;5.466;2023-04-01T04:50:49;8.43;;;6.07;;
9420;SDS011;4749;51.398;5.466;2023-04-01T04:53:17;7.53;;;5.80;;
9420;SDS011;4749;51.398;5.466;2023-04-01T04:55:46;8.87;;;6.70;;
9420;SDS011;4749;51.398;5.466;2023-04-01T04:58:15;8.30;;;6.10;;
9420;SDS011;4749;51.398;5.466;2023-04-01T05:00:44;8.00;;;6.43;;
9420;SDS011;4749;51.398;5.466;2023-04-01T05:03:12;8.80;;;6.37;;
9420;SDS011;4749;51.398;5.466;2023-04-01T05:05:47;9.23;;;7.00;;
9420;SDS011;4749;51.398;5.466;2023-04-01T05:08:20;8.97;;;6.43;;
9420;SDS011;4749;51.398;5.466;2023-04-01T05:10:47;8.13;;;5.93;;
9420;SDS011;4749;51.398;5.466;2023-04-01T05:13:14;8.97;;;6.70;;
9420;SDS011;4749;51.398;5.466;2023-04-01T05:15:41;8.30;;;6.13;;
9420;SDS011;4749;51.398;5.466;2023-04-01T05:18:08;7.13;;;5.50;;
9420;SDS011;4749;51.398;5.466;2023-04-01T05:20:35;8.23;;;6.13;;
9420;SDS011;4749;51.398;5.466;2023-04-01T05:23:03;7.70;;;5.50;;
9420;SDS011;4749;51.398;5.466;2023-04-01T05:25:30;7.13;;;5.20;;
9420;SDS011;4749;51.398;5.466;2023-04-01T05:27:58;7.20;;;5.40;;
9420;SDS011;4749;51.398;5.466;2023-04-01T05:30:25;6.00;;;4.97;;
9420;SDS011;4749;51.398;5.466;2023-04-01T05:32:52;6.83;;;4.83;;
9420;SDS011;4749;51.398;5.466;2023-04-01T05:35:19;5.60;;;4.87;;
9420;SDS011;4749;51.398;5.466;2023-04-01T05:37:47;4.57;;;3.90;;
9420;SDS011;4749;51.398;5.466;2023-04-01T05:40:14;5.33;;;4.23;;
9420;SDS011;4749;51.398;5.466;2023-04-01T05:42:41;5.30;;;4.40;;
9420;SDS011;4749;51.398;5.466;2023-04-01T05:45:08;4.03;;;3.37;;
9420;SDS011;4749;51.398;5.466;2023-04-01T05:47:36;3.53;;;3.00;;
9420;SDS011;4749;51.398;5.466;2023-04-01T05:50:03;5.87;;;3.77;;
9420;SDS011;4749;51.398;5.466;2023-04-01T05:52:31;5.37;;;3.33;;
9420;SDS011;4749;51.398;5.466;2023-04-01T05:54:58;4.90;;;3.40;;
9420;SDS011;4749;51.398;5.466;2023-04-01T05:57:26;4.93;;;3.30;;
9420;SDS011;4749;51.398;5.466;2023-04-01T05:59:54;3.53;;;3.23;;
9420;SDS011;4749;51.398;5.466;2023-04-01T06:02:21;3.33;;;2.90;;
9420;SDS011;4749;51.398;5.466;2023-04-01T06:04:49;4.17;;;3.13;;
9420;SDS011;4749;51.398;5.466;2023-04-01T06:07:28;3.50;;;2.90;;
9420;SDS011;4749;51.398;5.466;2023-04-01T06:09:56;3.83;;;3.00;;
9420;SDS011;4749;51.398;5.466;2023-04-01T06:15:06;3.20;;;2.73;;
9420;SDS011;4749;51.398;5.466;2023-04-01T06:26:33;3.50;;;2.63;;
9420;SDS011;4749;51.398;5.466;2023-04-01T06:37:56;3.33;;;2.30;;
9420;SDS011;4749;51.398;5.466;2023-04-01T06:40:43;2.50;;;2.30;;
9420;SDS011;4749;51.398;5.466;2023-04-01T06:44:04;5.07;;;2.70;;
9420;SDS011;4749;51.398;5.466;2023-04-01T06:46:47;3.97;;;2.40;;
9420;SDS011;4749;51.398;5.466;2023-04-01T06:56:04;3.30;;;2.57;;
9420;SDS011;4749;51.398;5.466;2023-04-01T06:58:44;4.50;;;2.57;;
9420;SDS011;4749;51.398;5.466;2023-04-01T07:01:39;3.07;;;2.27;;
9420;SDS011;4749;51.398;5.466;2023-04-01T07:04:31;2.83;;;2.50;;
9420;SDS011;4749;51.398;5.466;2023-04-01T07:07:16;3.67;;;3.10;;
9420;SDS011;4749;51.398;5.466;2023-04-01T07:10:12;4.05;;;2.95;;
9420;SDS011;4749;51.398;5.466;2023-04-01T07:13:07;4.10;;;3.33;;
9420;SDS011;4749;51.398;5.466;2023-04-01T07:15:51;4.32;;;3.17;;
9420;SDS011;4749;51.398;5.466;2023-04-01T07:18:53;5.60;;;4.15;;
9420;SDS011;4749;51.398;5.466;2023-04-01T07:22:03;6.73;;;4.67;;
9420;SDS011;4749;51.398;5.466;2023-04-01T07:25:20;7.60;;;5.43;;
9420;SDS011;4749;51.398;5.466;2023-04-01T07:27:56;10.10;;;6.07;;
9420;SDS011;4749;51.398;5.466;2023-04-01T07:30:45;7.50;;;5.90;;
9420;SDS011;4749;51.398;5.466;2023-04-01T07:44:46;13.18;;;7.47;;
9420;SDS011;4749;51.398;5.466;2023-04-01T07:47:57;11.18;;;7.85;;
9420;SDS011;4749;51.398;5.466;2023-04-01T07:56:55;15.77;;;9.40;;
9420;SDS011;4749;51.398;5.466;2023-04-01T08:06:04;17.75;;;11.30;;
9420;SDS011;4749;51.398;5.466;2023-04-01T08:11:51;20.75;;;13.13;;
9420;SDS011;4749;51.398;5.466;2023-04-01T08:20:48;22.60;;;12.85;;
9420;SDS011;4749;51.398;5.466;2023-04-01T08:23:22;23.58;;;13.80;;
9420;SDS011;4749;51.398;5.466;2023-04-01T08:29:03;19.90;;;12.38;;
9420;SDS011;4749;51.398;5.466;2023-04-01T08:34:20;17.30;;;11.85;;
9420;SDS011;4749;51.398;5.466;2023-04-01T08:36:53;21.35;;;12.25;;
9420;SDS011;4749;51.398;5.466;2023-04-01T08:39:30;17.58;;;11.82;;
9420;SDS011;4749;51.398;5.466;2023-04-01T08:42:28;25.58;;;12.27;;
9420;SDS011;4749;51.398;5.466;2023-04-01T08:45:47;16.27;;;11.35;;
9420;SDS011;4749;51.398;5.466;2023-04-01T08:48:41;14.60;;;10.10;;
9420;SDS011;4749;51.398;5.466;2023-04-01T08:51:47;17.20;;;11.02;;
9420;SDS011;4749;51.398;5.466;2023-04-01T08:55:19;11.80;;;9.73;;
9420;SDS011;4749;51.398;5.466;2023-04-01T09:00:33;11.75;;;9.27;;
9420;SDS011;4749;51.398;5.466;2023-04-01T09:03:37;14.57;;;9.18;;
9420;SDS011;4749;51.398;5.466;2023-04-01T09:09:46;10.95;;;8.13;;
9420;SDS011;4749;51.398;5.466;2023-04-01T09:15:37;9.85;;;7.20;;
9420;SDS011;4749;51.398;5.466;2023-04-01T09:21:28;9.75;;;7.38;;
9420;SDS011;4749;51.398;5.466;2023-04-01T09:24:35;10.20;;;6.78;;
9420;SDS011;4749;51.398;5.466;2023-04-01T09:33:30;9.60;;;6.18;;
9420;SDS011;4749;51.398;5.466;2023-04-01T09:45:07;5.72;;;4.90;;
9420;SDS011;4749;51.398;5.466;2023-04-01T09:48:13;5.55;;;4.55;;
9420;SDS011;4749;51.398;5.466;2023-04-01T09:51:12;6.80;;;4.50;;
9420;SDS011;4749;51.398;5.466;2023-04-01T10:09:33;9.27;;;6.28;;
9420;SDS011;4749;51.398;5.466;2023-04-01T10:12:49;8.23;;;6.22;;
9420;SDS011;4749;51.398;5.466;2023-04-01T10:21:37;7.78;;;6.47;;
9420;SDS011;4749;51.398;5.466;2023-04-01T10:27:59;8.70;;;5.90;;
9420;SDS011;4749;51.398;5.466;2023-04-01T10:31:06;8.25;;;5.63;;
9420;SDS011;4749;51.398;5.466;2023-04-01T10:34:21;10.80;;;6.10;;
9420;SDS011;4749;51.398;5.466;2023-04-01T10:37:23;9.57;;;5.35;;
9420;SDS011;4749;51.398;5.466;2023-04-01T10:40:37;8.35;;;5.45;;
9420;SDS011;4749;51.398;5.466;2023-04-01T10:50:02;6.53;;;4.50;;
9420;SDS011;4749;51.398;5.466;2023-04-01T11:14:26;4.10;;;2.78;;
9420;SDS011;4749;51.398;5.466;2023-04-01T11:46:05;5.05;;;3.60;;
9420;SDS011;4749;51.398;5.466;2023-04-01T12:12:44;4.15;;;2.92;;
9420;SDS011;4749;51.398;5.466;2023-04-01T12:16:04;3.45;;;2.58;;
9420;SDS011;4749;51.398;5.466;2023-04-01T12:19:08;4.32;;;3.08;;
9420;SDS011;4749;51.398;5.466;2023-04-01T12:28:39;3.42;;;2.33;;
9420;SDS011;4749;51.398;5.466;2023-04-01T12:40:46;2.00;;;1.80;;
9420;SDS011;4749;51.398;5.466;2023-04-01T12:46:59;3.20;;;2.40;;
9420;SDS011;4749;51.398;5.466;2023-04-01T13:10:30;3.10;;;2.33;;
9420;SDS011;4749;51.398;5.466;2023-04-01T13:17:17;2.95;;;2.58;;
9420;SDS011;4749;51.398;5.466;2023-04-01T13:22:51;3.40;;;2.88;;
9420;SDS011;4749;51.398;5.466;2023-04-01T13:40:43;3.40;;;2.75;;
9420;SDS011;4749;51.398;5.466;2023-04-01T13:46:21;3.22;;;2.92;;
9420;SDS011;4749;51.398;5.466;2023-04-01T13:49:22;4.85;;;3.80;;
9420;SDS011;4749;51.398;5.466;2023-04-01T13:55:14;3.95;;;3.50;;
9420;SDS011;4749;51.398;5.466;2023-04-01T13:58:38;4.18;;;3.33;;
9420;SDS011;4749;51.398;5.466;2023-04-01T14:10:18;5.70;;;3.88;;
9420;SDS011;4749;51.398;5.466;2023-04-01T14:13:18;6.95;;;4.07;;
9420;SDS011;4749;51.398;5.466;2023-04-01T14:16:00;5.53;;;3.80;;
9420;SDS011;4749;51.398;5.466;2023-04-01T14:22:23;5.35;;;3.90;;
9420;SDS011;4749;51.398;5.466;2023-04-01T14:25:07;7.13;;;4.38;;
9420;SDS011;4749;51.398;5.466;2023-04-01T14:32:10;5.45;;;3.67;;
9420;SDS011;4749;51.398;5.466;2023-04-01T14:45:12;3.70;;;2.88;;
9420;SDS011;4749;51.398;5.466;2023-04-01T14:48:17;3.72;;;2.58;;
9420;SDS011;4749;51.398;5.466;2023-04-01T14:54:03;5.05;;;3.20;;
9420;SDS011;4749;51.398;5.466;2023-04-01T14:56:37;3.85;;;3.00;;
9420;SDS011;4749;51.398;5.466;2023-04-01T14:59:49;3.67;;;2.72;;
9420;SDS011;4749;51.398;5.466;2023-04-01T15:02:01;3.85;;;2.70;;
9420;SDS011;4749;51.398;5.466;2023-04-01T15:04:37;3.88;;;3.08;;
9420;SDS011;4749;51.398;5.466;2023-04-01T15:16:46;3.63;;;2.80;;
9420;SDS011;4749;51.398;5.466;2023-04-01T15:38:11;3.50;;;2.20;;
9420;SDS011;4749;51.398;5.466;2023-04-01T15:46:29;3.15;;;2.17;;
9420;SDS011;4749;51.398;5.466;2023-04-01T15:52:19;4.72;;;2.60;;
9420;SDS011;4749;51.398;5.466;2023-04-01T16:18:59;3.50;;;2.80;;
9420;SDS011;4749;51.398;5.466;2023-04-01T16:31:09;3.35;;;2.88;;
9420;SDS011;4749;51.398;5.466;2023-04-01T16:36:51;3.90;;;2.83;;
9420;SDS011;4749;51.398;5.466;2023-04-01T16:39:44;6.63;;;4.90;;
9420;SDS011;4749;51.398;5.466;2023-04-01T16:42:53;9.30;;;6.40;;
9420;SDS011;4749;51.398;5.466;2023-04-01T16:45:53;4.43;;;3.78;;
9420;SDS011;4749;51.398;5.466;2023-04-01T16:51:52;5.47;;;4.00;;
9420;SDS011;4749;51.398;5.466;2023-04-01T16:57:51;5.70;;;4.27;;
9420;SDS011;4749;51.398;5.466;2023-04-01T17:00:26;4.63;;;3.85;;
9420;SDS011;4749;51.398;5.466;2023-04-01T17:03:17;5.93;;;4.13;;
9420;SDS011;4749;51.398;5.466;2023-04-01T17:09:24;6.53;;;4.50;;
9420;SDS011;4749;51.398;5.466;2023-04-01T17:12:18;6.43;;;4.43;;
9420;SDS011;4749;51.398;5.466;2023-04-01T17:14:59;6.33;;;5.43;;
9420;SDS011;4749;51.398;5.466;2023-04-01T17:21:25;10.30;;;6.80;;
9420;SDS011;4749;51.398;5.466;2023-04-01T17:27:18;8.77;;;7.50;;
9420;SDS011;4749;51.398;5.466;2023-04-01T17:35:59;9.93;;;8.23;;
9420;SDS011;4749;51.398;5.466;2023-04-01T17:39:10;8.43;;;5.97;;
9420;SDS011;4749;51.398;5.466;2023-04-01T17:42:21;10.20;;;6.07;;
9420;SDS011;4749;51.398;5.466;2023-04-01T17:45:21;7.43;;;5.73;;
9420;SDS011;4749;51.398;5.466;2023-04-01T17:48:02;12.02;;;7.15;;
9420;SDS011;4749;51.398;5.466;2023-04-01T17:56:36;12.03;;;7.13;;
9420;SDS011;4749;51.398;5.466;2023-04-01T18:02:02;10.00;;;7.80;;
9420;SDS011;4749;51.398;5.466;2023-04-01T18:05:37;11.27;;;7.53;;
9420;SDS011;4749;51.398;5.466;2023-04-01T18:17:25;9.20;;;6.47;;
9420;SDS011;4749;51.398;5.466;2023-04-01T18:23:30;7.80;;;6.13;;
9420;SDS011;4749;51.398;5.466;2023-04-01T18:26:28;8.10;;;5.77;;
9420;SDS011;4749;51.398;5.466;2023-04-01T18:29:44;8.03;;;5.43;;
9420;SDS011;4749;51.398;5.466;2023-04-01T18:32:21;7.30;;;5.60;;
9420;SDS011;4749;51.398;5.466;2023-04-01T18:35:47;7.93;;;5.80;;
9420;SDS011;4749;51.398;5.466;2023-04-01T18:38:34;6.55;;;5.43;;
9420;SDS011;4749;51.398;5.466;2023-04-01T18:41:13;7.40;;;5.67;;
9420;SDS011;4749;51.398;5.466;2023-04-01T18:50:21;6.13;;;5.07;;
9420;SDS011;4749;51.398;5.466;2023-04-01T18:53:08;8.07;;;5.23;;
9420;SDS011;4749;51.398;5.466;2023-04-01T18:56:03;7.55;;;5.45;;
9420;SDS011;4749;51.398;5.466;2023-04-01T18:58:42;7.28;;;5.30;;
9420;SDS011;4749;51.398;5.466;2023-04-01T19:07:01;5.47;;;4.38;;
9420;SDS011;4749;51.398;5.466;2023-04-01T19:09:52;6.87;;;5.43;;
9420;SDS011;4749;51.398;5.466;2023-04-01T19:12:24;6.63;;;5.10;;
9420;SDS011;4749;51.398;5.466;2023-04-01T19:15:27;5.80;;;5.03;;
9420;SDS011;4749;51.398;5.466;2023-04-01T19:36:38;5.93;;;4.85;;
9420;SDS011;4749;51.398;5.466;2023-04-01T19:42:14;6.07;;;4.90;;
9420;SDS011;4749;51.398;5.466;2023-04-01T19:47:37;8.15;;;6.30;;
9420;SDS011;4749;51.398;5.466;2023-04-01T19:50:37;7.53;;;6.37;;
9420;SDS011;4749;51.398;5.466;2023-04-01T19:56:24;8.13;;;6.50;;
9420;SDS011;4749;51.398;5.466;2023-04-01T20:05:19;7.93;;;6.50;;
9420;SDS011;4749;51.398;5.466;2023-04-01T20:08:01;8.30;;;6.90;;
9420;SDS011;4749;51.398;5.466;2023-04-01T20:10:57;10.20;;;7.13;;
9420;SDS011;4749;51.398;5.466;2023-04-01T20:16:37;8.97;;;7.27;;
9420;SDS011;4749;51.398;5.466;2023-04-01T20:19:44;8.77;;;7.07;;
9420;SDS011;4749;51.398;5.466;2023-04-01T20:22:19;9.47;;;6.80;;
9420;SDS011;4749;51.398;5.466;2023-04-01T20:37:18;10.63;;;8.03;;
9420;SDS011;4749;51.398;5.466;2023-04-01T20:40:06;8.50;;;6.90;;
9420;SDS011;4749;51.398;5.466;2023-04-01T20:51:57;9.53;;;7.23;;
9420;SDS011;4749;51.398;5.466;2023-04-01T20:57:23;9.50;;;7.77;;
9420;SDS011;4749;51.398;5.466;2023-04-01T21:18:16;9.33;;;7.50;;
9420;SDS011;4749;51.398;5.466;2023-04-01T21:36:30;9.00;;;7.03;;
9420;SDS011;4749;51.398;5.466;2023-04-01T21:39:19;8.63;;;7.07;;
9420;SDS011;4749;51.398;5.466;2023-04-01T21:51:40;11.10;;;7.30;;
9420;SDS011;4749;51.398;5.466;2023-04-01T22:12:50;9.47;;;7.87;;
9420;SDS011;4749;51.398;5.466;2023-04-01T22:15:54;10.73;;;7.50;;
9420;SDS011;4749;51.398;5.466;2023-04-01T22:22:01;9.13;;;7.27;;
9420;SDS011;4749;51.398;5.466;2023-04-01T22:28:09;9.33;;;7.23;;
9420;SDS011;4749;51.398;5.466;2023-04-01T22:30:59;11.03;;;7.53;;
9420;SDS011;4749;51.398;5.466;2023-04-01T22:33:31;8.93;;;7.67;;
9420;SDS011;4749;51.398;5.466;2023-04-01T22:42:38;10.07;;;8.37;;
9420;SDS011;4749;51.398;5.466;2023-04-01T22:47:44;10.00;;;8.43;;
9420;SDS011;4749;51.398;5.466;2023-04-01T22:50:46;11.20;;;8.87;;
9420;SDS011;4749;51.398;5.466;2023-04-01T22:56:40;10.77;;;8.93;;
9420;SDS011;4749;51.398;5.466;2023-04-01T23:02:00;12.93;;;10.50;;
9420;SDS011;4749;51.398;5.466;2023-04-01T23:04:39;14.73;;;10.63;;
9420;SDS011;4749;51.398;5.466;2023-04-01T23:07:29;13.50;;;10.53;;
9420;SDS011;4749;51.398;5.466;2023-04-01T23:10:39;14.53;;;11.53;;
9420;SDS011;4749;51.398;5.466;2023-04-01T23:13:13;16.53;;;11.37;;
9420;SDS011;4749;51.398;5.466;2023-04-01T23:15:45;16.17;;;11.70;;
9420;SDS011;4749;51.398;5.466;2023-04-01T23:18:30;14.17;;;10.53;;
9420;SDS011;4749;51.398;5.466;2023-04-01T23:21:25;11.97;;;10.47;;
9420;SDS011;4749;51.398;5.466;2023-04-01T23:29:47;11.00;;;8.67;;
9420;SDS011;4749;51.398;5.466;2023-04-01T23:32:15;10.80;;;7.93;;
9420;SDS011;4749;51.398;5.466;2023-04-01T23:34:47;12.97;;;9.27;;
9420;SDS011;4749;51.398;5.466;2023-04-01T23:37:17;10.90;;;8.17;;
9420;SDS011;4749;51.398;5.466;2023-04-01T23:39:47;10.47;;;8.53;;
9420;SDS011;4749;51.398;5.466;2023-04-01T23:45:15;9.20;;;8.10;;
9420;SDS011;4749;51.398;5.466;2023-04-01T23:47:46;9.90;;;7.97;;
9420;SDS011;4749;51.398;5.466;2023-04-01T23:50:17;9.00;;;7.40;;
9420;SDS011;4749;51.398;5.466;2023-04-01T23:52:52;8.57;;;7.37;;
9420;SDS011;4749;51.398;5.466;2023-04-01T23:55:40;9.27;;;7.40;;
